Flight Track Log - Related Links

Times and Time Zones

All times are in EDT time to prevent confusion due to time zone crossing. See the AWE1640 flight status page for this flight to view local times or setup timezone preferences in your user account.

Time Position Orientation Groundspeed Altitude Reporting Facility
EDT Latitude Longitude Course Direction KTS MPH feet Rate Location/Type
Sun 07:57:37 AM 35.2670 -80.9290 29° Northeast 210 242 3,000  Level FlightAware ADS-B
Sun 07:59:00 AM 35.1131 -80.6246 29° Northeast  Level FlightAware Approximate
Sun 07:59:37 AM 35.2960 -80.7710 77° East 295 339 7,900  Level FlightAware ADS-B
Sun 07:59:57 AM 35.2940 -80.7330 94° East 302 348 8,700 2,229 Climbing FlightAware ADS-B
Sun 08:00:12 AM 35.2920 -80.7080 96° East 315 362 9,200 2,000 Climbing FlightAware ADS-B
Sun 08:00:27 AM 35.2910 -80.6830 93° East 324 373 9,700 1,906 Climbing FlightAware ADS-B
Sun 08:01:37 AM 35.3160 -80.5530 77° East 359 413 11,900 910 Climbing FlightAware ADS-B
Sun 08:02:52 AM 35.3450 -80.4230 75° East 359 413 11,900  Level FlightAware ADS-B
Sun 08:03:32 AM 35.3590 -80.3560 76° East 359 413 11,900 3,857 Level FlightAware ADS-B
Sun 08:04:30 AM 35.4261 -80.1647 76° East 421 484 18,200 4,271 Climbing Washington Center
Sun 08:05:30 AM 35.4625 -80.0242 72° East 421 484 20,300 1,496 Climbing Washington Center
Sun 08:10:47 AM 35.7130 -79.2140 72° East 515 593 27,600 1,385 Climbing FlightAware ADS-B
Sun 08:11:47 AM 35.8360 -79.1090 35° Northeast 506 582 29,000 1,429 Climbing FlightAware ADS-B
Sun 08:12:32 AM 35.9260 -79.0420 31° Northeast 510 587 30,100 1,129 Climbing FlightAware ADS-B
Sun 08:13:12 AM 36.0030 -78.9850 31° Northeast 511 588 30,600 771 Climbing FlightAware ADS-B
Sun 08:13:42 AM 36.0720 -78.9350 30° Northeast 525 604 31,000 960 Climbing FlightAware ADS-B
Sun 08:14:27 AM 36.1650 -78.8650 31° Northeast 528 608 31,800 1,036 Climbing FlightAware ADS-B
Sun 08:17:22 AM 36.5300 -78.5910 31° Northeast 529 609 34,800 937 Climbing FlightAware ADS-B
Sun 08:17:52 AM 36.5930 -78.5440 31° Northeast 526 605 35,000 200 Climbing FlightAware ADS-B
Sun 08:18:22 AM 36.6570 -78.4950 32° Northeast 523 602 35,000  Level FlightAware ADS-B
Sun 08:19:07 AM 36.7440 -78.4300 31° Northeast 525 604 35,000  Level FlightAware ADS-B
Sun 08:19:47 AM 36.8350 -78.3610 31° Northeast 524 603 35,000  Level FlightAware ADS-B
Sun 08:20:22 AM 36.9110 -78.3030 31° Northeast 523 602 35,000  Level FlightAware ADS-B
Sun 08:20:47 AM 36.9590 -78.2670 31° Northeast 523 602 35,000  Level FlightAware ADS-B
Sun 08:21:27 AM 37.0390 -78.2060 31° Northeast 524 603 35,000  Level FlightAware ADS-B
Sun 08:22:22 AM 37.1550 -78.1170 31° Northeast 524 603 35,000  Level FlightAware ADS-B
Sun 08:23:07 AM 37.2470 -78.0460 32° Northeast 523 602 35,000  Level FlightAware ADS-B
Sun 08:23:27 AM 37.2880 -78.0140 32° Northeast 523 602 35,000  Level FlightAware ADS-B
Sun 08:24:32 AM 37.4280 -77.9060 31° Northeast 524 603 35,000  Level FlightAware ADS-B
Sun 08:25:22 AM 37.5300 -77.8260 32° Northeast 526 605 35,000  Level FlightAware ADS-B
Sun 08:26:07 AM 37.6190 -77.7460 35° Northeast 528 608 35,000  Level FlightAware ADS-B
Sun 08:27:02 AM 37.7290 -77.6470 35° Northeast 528 608 35,000  Level FlightAware ADS-B
Sun 08:27:37 AM 37.8020 -77.5810 36° Northeast 529 609 35,000  Level FlightAware ADS-B
Sun 08:28:12 AM 37.8680 -77.5210 36° Northeast 529 609 35,000  Level FlightAware ADS-B
Sun 08:28:23 AM 37.8945 -77.4962 36° Northeast 529 609 35,000  Level FlightAware ADS-B
Sun 08:28:55 AM 37.9575 -77.4385 36° Northeast 530 610 35,000  Level FlightAware ADS-B
Sun 08:29:26 AM 38.0190 -77.3822 36° Northeast 530 610 35,000  Level FlightAware ADS-B
Sun 08:29:56 AM 38.0788 -77.3274 36° Northeast 530 610 35,000  Level FlightAware ADS-B
Sun 08:30:26 AM 38.1395 -77.2714 36° Northeast 530 610 35,000  Level FlightAware ADS-B
Sun 08:31:00 AM 38.2063 -77.2098 36° Northeast 529 609 35,000  Level FlightAware ADS-B
Sun 08:31:31 AM 38.2675 -77.1533 36° Northeast 530 610 35,000  Level FlightAware ADS-B
Sun 08:32:01 AM 38.3270 -77.0981 36° Northeast 529 609 35,000  Level FlightAware ADS-B
Sun 08:32:34 AM 38.3918 -77.0380 36° Northeast 529 609 35,000  Level FlightAware ADS-B
Sun 08:33:07 AM 38.4581 -76.9764 36° Northeast 528 608 35,000  Level FlightAware ADS-B
Sun 08:33:39 AM 38.5213 -76.9174 36° Northeast 528 608 35,000  Level FlightAware ADS-B
Sun 08:34:11 AM 38.5848 -76.8583 36° Northeast 527 606 35,000  Level FlightAware ADS-B
Sun 08:34:44 AM 38.6493 -76.7980 36° Northeast 529 609 35,000  Level FlightAware ADS-B
Sun 08:35:18 AM 38.7150 -76.7336 37° Northeast 531 611 35,000  Level FlightAware ADS-B
Sun 08:35:49 AM 38.7717 -76.6691 42° Northeast 532 612 35,000  Level FlightAware ADS-B
Sun 08:36:19 AM 38.8269 -76.6055 42° Northeast 533 613 35,000 -300 Level FlightAware ADS-B
Sun 08:36:49 AM 38.8833 -76.5404 42° Northeast 533 613 34,700 -885 Descending FlightAware ADS-B
Sun 08:37:20 AM 38.9389 -76.4761 42° Northeast 534 615 34,100 -1,770 Descending FlightAware ADS-B
Sun 08:37:50 AM 38.9948 -76.4114 42° Northeast 536 617 32,900 -2,400 Descending FlightAware ADS-B
Sun 08:38:20 AM 39.0504 -76.3469 42° Northeast 535 616 31,700 -2,557 Descending FlightAware ADS-B
Sun 08:38:51 AM 39.1074 -76.2805 42° Northeast 536 617 30,300 -2,667 Descending FlightAware ADS-B
Sun 08:39:23 AM 39.1655 -76.2128 42° Northeast 535 616 28,900 -2,400 Descending FlightAware ADS-B
Sun 08:39:56 AM 39.2258 -76.1423 42° Northeast 525 604 27,700 -2,000 Descending FlightAware ADS-B
Sun 08:40:26 AM 39.2795 -76.0796 42° Northeast 519 597 26,800 -1,900 Descending FlightAware ADS-B
Sun 08:40:56 AM 39.3332 -76.0164 42° Northeast 520 598 25,800 -1,869 Descending FlightAware ADS-B
Sun 08:41:27 AM 39.3867 -75.9534 42° Northeast 515 593 24,900 -1,770 Descending FlightAware ADS-B
Sun 08:41:57 AM 39.4395 -75.8911 42° Northeast 507 583 24,000 -1,742 Descending FlightAware ADS-B
Sun 08:42:29 AM 39.4944 -75.8261 42° Northeast 498 573 23,100 -1,714 Descending FlightAware ADS-B
Sun 08:43:00 AM 39.5467 -75.7640 42° Northeast 486 559 22,200 -1,672 Descending FlightAware ADS-B
Sun 08:43:30 AM 39.5960 -75.7056 42° Northeast 473 544 21,400 -1,672 Descending FlightAware ADS-B
Sun 08:44:01 AM 39.6443 -75.6481 43° Northeast 462 532 20,500 -1,619 Descending FlightAware ADS-B
Sun 08:44:33 AM 39.6949 -75.5873 43° Northeast 454 522 19,700 -1,742 Descending FlightAware ADS-B
Sun 08:45:03 AM 39.7408 -75.5322 43° Northeast 444 511 18,700 -1,900 Descending FlightAware ADS-B
Sun 08:45:33 AM 39.7860 -75.4778 43° Northeast 433 498 17,800 -1,672 Descending FlightAware ADS-B
Sun 08:46:04 AM 39.8301 -75.4245 43° Northeast 426 490 17,000 -1,688 Descending FlightAware ADS-B
Sun 08:46:37 AM 39.8777 -75.3667 43° Northeast 418 481 16,000 -1,714 Descending FlightAware ADS-B
Sun 08:47:07 AM 39.9199 -75.3156 43° Northeast 411 473 15,200 -1,574 Descending FlightAware ADS-B
Sun 08:47:38 AM 39.9623 -75.2641 43° Northeast 404 465 14,400 -1,548 Descending FlightAware ADS-B
Sun 08:48:09 AM 40.0037 -75.2138 43° Northeast 396 456 13,600 -1,574 Descending FlightAware ADS-B
Sun 08:48:39 AM 40.0437 -75.1650 43° Northeast 384 442 12,800 -1,600 Descending FlightAware ADS-B
Sun 08:49:09 AM 40.0823 -75.1179 43° Northeast 375 432 12,000 -1,475 Descending FlightAware ADS-B
Sun 08:49:40 AM 40.1211 -75.0703 43° Northeast 364 419 11,300 -1,219 Descending FlightAware ADS-B
Sun 08:50:13 AM 40.1601 -75.0223 43° Northeast 337 388 10,700 -1,258 Descending FlightAware ADS-B
Sun 08:50:42 AM 40.1919 -74.9831 43° Northeast 323 372 10,000 -1,696 Descending FlightAware ADS-B
Sun 08:50:59 AM 40.2099 -74.9609 43° Northeast 316 364 9,400 -2,250 Descending FlightAware ADS-B
Sun 08:51:14 AM 40.2262 -74.9411 43° Northeast 317 365 8,800 -2,000 Descending FlightAware ADS-B
Sun 08:51:29 AM 40.2425 -74.9212 43° Northeast 316 364 8,400 -1,161 Descending FlightAware ADS-B
Sun 08:51:45 AM 40.2589 -74.9003 44° Northeast 310 357 8,200 -375 Descending FlightAware ADS-B
Sun 08:52:01 AM 40.2746 -74.8782 47° Northeast 311 358 8,200  Level FlightAware ADS-B
Sun 08:52:17 AM 40.2902 -74.8564 47° Northeast 311 358 8,200  Level FlightAware ADS-B
Sun 08:52:32 AM 40.3050 -74.8357 47° Northeast 309 356 8,200  Level FlightAware ADS-B
Sun 08:52:47 AM 40.3200 -74.8147 47° Northeast 308 354 8,200  Level FlightAware ADS-B
Sun 08:53:03 AM 40.3354 -74.7930 47° Northeast 308 354 8,200 -188 Level FlightAware ADS-B
Sun 08:53:19 AM 40.3509 -74.7713 47° Northeast 309 356 8,100 -387 Descending FlightAware ADS-B
Sun 08:53:34 AM 40.3654 -74.7508 47° Northeast 307 353 8,000 -581 Descending FlightAware ADS-B
Sun 08:53:50 AM 40.3805 -74.7296 47° Northeast 307 353 7,800 -581 Descending FlightAware ADS-B
Sun 08:54:05 AM 40.3951 -74.7089 47° Northeast 307 353 7,700 -600 Descending FlightAware ADS-B
Sun 08:54:20 AM 40.4099 -74.6882 47° Northeast 302 348 7,500 -632 Descending FlightAware ADS-B
Sun 08:54:24 AM 40.4142 -74.6826 45° Northeast 301 346 7,500 -750 Level FlightAware ADS-B
Sun 08:54:28 AM 40.4185 -74.6780 39° Northeast 298 343 7,400 -600 Descending FlightAware ADS-B
Sun 08:54:34 AM 40.4247 -74.6728 33° Northeast 295 339 7,400 -667 Level FlightAware ADS-B
Sun 08:54:37 AM 40.4285 -74.6703 27° Northeast 292 336 7,300 -1,000 Descending FlightAware ADS-B
Sun 08:54:40 AM 40.4323 -74.6683 22° Northeast 291 335 7,300  Level FlightAware ADS-B
Sun 08:54:43 AM 40.4362 -74.6667 17° North 288 331 7,300 -333 Level FlightAware ADS-B
Sun 08:54:58 AM 40.4560 -74.6613 12° North 287 330 7,200 -581 Descending FlightAware ADS-B
Sun 08:55:14 AM 40.4761 -74.6559 12° North 287 330 7,000 -581 Descending FlightAware ADS-B
Sun 08:55:29 AM 40.4967 -74.6501 12° North 285 328 6,900 -600 Descending FlightAware ADS-B
Sun 08:55:44 AM 40.5152 -74.6450 12° North 281 323 6,700 -563 Descending FlightAware ADS-B
Sun 08:56:01 AM 40.5375 -74.6391 11° North 278 320 6,600 -571 Descending FlightAware ADS-B
Sun 08:56:26 AM 40.5682 -74.6308 12° North 275 316 6,300 -600 Descending FlightAware ADS-B
Sun 08:56:41 AM 40.5872 -74.6256 12° North 274 315 6,200 -194 Descending FlightAware ADS-B
Sun 08:56:57 AM 40.6071 -74.6202 12° North 275 316 6,200  Level FlightAware ADS-B
Sun 08:57:13 AM 40.6271 -74.6149 11° North 275 316 6,200  Level FlightAware ADS-B
Sun 08:57:30 AM 40.6485 -74.6093 11° North 273 314 6,200  Level FlightAware ADS-B
Sun 08:58:02 AM 40.6879 -74.5987 12° North 272 313 6,200  Level FlightAware ADS-B
Sun 08:58:33 AM 40.7258 -74.5883 12° North 270 311 6,200  Level FlightAware ADS-B
Sun 08:58:47 AM 40.7431 -74.5833 12° North 272 313 6,200  Level FlightAware ADS-B
Sun 08:58:55 AM 40.7529 -74.5775 24° Northeast 278 320 6,200  Level FlightAware ADS-B
Sun 08:59:16 AM 40.7722 -74.5537 43° Northeast 284 327 6,200 -240 Level FlightAware ADS-B
Sun 08:59:20 AM 40.7758 -74.5478 51° Northeast 284 327 6,100 -1,400 Descending FlightAware ADS-B
Sun 08:59:46 AM 40.7958 -74.5115 54° Northeast 284 327 5,500 -844 Descending FlightAware ADS-B
Sun 09:00:24 AM 40.8256 -74.4590 53° Northeast 283 326 5,200 -429 Descending FlightAware ADS-B
Sun 09:00:28 AM 40.8285 -74.4541 52° Northeast 278 320 5,200  Level FlightAware ADS-B
Sun 09:00:46 AM 40.8427 -74.4299 52° Northeast 278 320 5,200  Level FlightAware ADS-B
Sun 09:01:07 AM 40.8589 -74.4018 53° Northeast 276 318 5,200  Level FlightAware ADS-B
Sun 09:01:23 AM 40.8712 -74.3804 53° Northeast 277 319 5,200  Level FlightAware ADS-B
Sun 09:01:41 AM 40.8859 -74.3548 53° Northeast 278 320 5,200 -444 Level FlightAware ADS-B
Sun 09:02:17 AM 40.9100 -74.3080 56° Northeast 278 320 4,800 -652 Descending FlightAware ADS-B
Sun 09:02:27 AM 40.9130 -74.2930 75° East 279 321 4,700 -643 Descending FlightAware ADS-B
Sun 09:02:45 AM 40.9079 -74.2581 101° East 270 311 4,500 -706 Descending FlightAware ADS-B
Sun 09:03:01 AM 40.9010 -74.2350 112° Southeast 264 304 4,300 -563 Descending FlightAware ADS-B
Sun 09:03:17 AM 40.8934 -74.2100 112° Southeast 267 307 4,200 -333 Descending FlightAware ADS-B
Sun 09:03:37 AM 40.8845 -74.1800 111° Southeast 261 300 4,100 -500 Descending FlightAware ADS-B
Sun 09:03:53 AM 40.8775 -74.1571 112° Southeast 253 291 3,900 -679 Descending FlightAware ADS-B
Sun 09:04:30 AM 40.8558 -74.1119 122° Southeast 229 264 3,500 -982 Descending FlightAware ADS-B
Sun 09:04:48 AM 40.8380 -74.1062 166° South 220 253 3,000 -1,400 Descending FlightAware ADS-B
Sun 09:05:00 AM 40.8259 -74.1048 175° South 215 247 2,800 -419 Descending FlightAware ADS-B
Sun 09:05:31 AM 40.7971 -74.1012 175° South 209 241 2,700 -343 Descending FlightAware ADS-B
Sun 09:05:35 AM 40.7934 -74.1017 186° South 192 221 2,600 -750 Descending FlightAware ADS-B
Sun 09:05:39 AM 40.7905 -74.1026 193° South 187 215 2,600 -429 Level FlightAware ADS-B
Sun 09:05:49 AM 40.7828 -74.1069 203° Southwest 180 207 2,500 -947 Descending FlightAware ADS-B
Sun 09:05:58 AM 40.7763 -74.1112 207° Southwest 173 199 2,300 -1,333 Descending FlightAware ADS-B

Login

Don't have an account? Register now (free) for customized features, flight alerts, and more!